sensor_id;sensor_type;location;lat;lon;timestamp;P1;durP1;ratioP1;P2;durP2;ratioP2
19339;SDS011;9804;52.350;6.684;2022-07-23T00:01:13;5.45;;;3.63;;
19339;SDS011;9804;52.350;6.684;2022-07-23T00:03:39;4.18;;;3.78;;
19339;SDS011;9804;52.350;6.684;2022-07-23T00:06:04;4.68;;;3.50;;
19339;SDS011;9804;52.350;6.684;2022-07-23T00:08:30;6.85;;;3.83;;
19339;SDS011;9804;52.350;6.684;2022-07-23T00:10:55;4.57;;;3.55;;
19339;SDS011;9804;52.350;6.684;2022-07-23T00:13:20;6.43;;;3.50;;
19339;SDS011;9804;52.350;6.684;2022-07-23T00:15:46;4.40;;;3.60;;
19339;SDS011;9804;52.350;6.684;2022-07-23T00:18:11;7.28;;;3.85;;
19339;SDS011;9804;52.350;6.684;2022-07-23T00:20:36;7.20;;;3.80;;
19339;SDS011;9804;52.350;6.684;2022-07-23T00:23:02;4.63;;;3.78;;
19339;SDS011;9804;52.350;6.684;2022-07-23T00:25:27;5.43;;;3.83;;
19339;SDS011;9804;52.350;6.684;2022-07-23T00:27:52;9.05;;;4.40;;
19339;SDS011;9804;52.350;6.684;2022-07-23T00:30:18;4.70;;;4.18;;
19339;SDS011;9804;52.350;6.684;2022-07-23T00:32:47;5.60;;;4.15;;
19339;SDS011;9804;52.350;6.684;2022-07-23T00:35:14;4.00;;;3.60;;
19339;SDS011;9804;52.350;6.684;2022-07-23T00:37:40;5.18;;;4.53;;
19339;SDS011;9804;52.350;6.684;2022-07-23T00:40:06;8.82;;;4.90;;
19339;SDS011;9804;52.350;6.684;2022-07-23T00:42:32;6.22;;;4.47;;
19339;SDS011;9804;52.350;6.684;2022-07-23T00:44:57;6.90;;;3.80;;
19339;SDS011;9804;52.350;6.684;2022-07-23T00:47:23;9.75;;;4.30;;
19339;SDS011;9804;52.350;6.684;2022-07-23T00:49:48;6.13;;;4.25;;
19339;SDS011;9804;52.350;6.684;2022-07-23T00:52:14;6.70;;;4.32;;
19339;SDS011;9804;52.350;6.684;2022-07-23T00:54:40;8.88;;;4.85;;
19339;SDS011;9804;52.350;6.684;2022-07-23T00:57:06;9.55;;;4.57;;
19339;SDS011;9804;52.350;6.684;2022-07-23T00:59:31;5.70;;;4.40;;
19339;SDS011;9804;52.350;6.684;2022-07-23T01:01:57;7.82;;;5.03;;
19339;SDS011;9804;52.350;6.684;2022-07-23T01:04:22;5.97;;;4.30;;
19339;SDS011;9804;52.350;6.684;2022-07-23T01:06:47;7.43;;;4.40;;
19339;SDS011;9804;52.350;6.684;2022-07-23T01:09:13;8.52;;;4.80;;
19339;SDS011;9804;52.350;6.684;2022-07-23T01:11:38;6.90;;;4.70;;
19339;SDS011;9804;52.350;6.684;2022-07-23T01:14:09;6.97;;;4.88;;
19339;SDS011;9804;52.350;6.684;2022-07-23T01:16:40;6.72;;;4.80;;
19339;SDS011;9804;52.350;6.684;2022-07-23T01:19:06;7.95;;;4.47;;
19339;SDS011;9804;52.350;6.684;2022-07-23T01:21:50;6.68;;;4.13;;
19339;SDS011;9804;52.350;6.684;2022-07-23T01:24:17;6.13;;;4.88;;
19339;SDS011;9804;52.350;6.684;2022-07-23T01:26:46;6.35;;;4.82;;
19339;SDS011;9804;52.350;6.684;2022-07-23T01:29:12;7.40;;;4.63;;
19339;SDS011;9804;52.350;6.684;2022-07-23T01:31:38;6.93;;;4.85;;
19339;SDS011;9804;52.350;6.684;2022-07-23T01:34:04;5.05;;;4.40;;
19339;SDS011;9804;52.350;6.684;2022-07-23T01:36:31;5.78;;;4.90;;
19339;SDS011;9804;52.350;6.684;2022-07-23T01:38:57;8.85;;;4.95;;
19339;SDS011;9804;52.350;6.684;2022-07-23T01:41:23;7.53;;;4.75;;
19339;SDS011;9804;52.350;6.684;2022-07-23T01:43:48;5.75;;;4.57;;
19339;SDS011;9804;52.350;6.684;2022-07-23T01:46:14;6.40;;;4.70;;
19339;SDS011;9804;52.350;6.684;2022-07-23T01:48:39;7.40;;;4.55;;
19339;SDS011;9804;52.350;6.684;2022-07-23T01:51:05;7.55;;;5.50;;
19339;SDS011;9804;52.350;6.684;2022-07-23T01:53:30;4.55;;;3.97;;
19339;SDS011;9804;52.350;6.684;2022-07-23T01:55:58;6.85;;;4.82;;
19339;SDS011;9804;52.350;6.684;2022-07-23T01:58:24;6.32;;;5.22;;
19339;SDS011;9804;52.350;6.684;2022-07-23T02:00:50;6.40;;;5.22;;
19339;SDS011;9804;52.350;6.684;2022-07-23T02:03:16;6.88;;;4.90;;
19339;SDS011;9804;52.350;6.684;2022-07-23T02:05:41;7.82;;;5.30;;
19339;SDS011;9804;52.350;6.684;2022-07-23T02:08:06;6.93;;;5.05;;
19339;SDS011;9804;52.350;6.684;2022-07-23T02:10:32;7.80;;;5.20;;
19339;SDS011;9804;52.350;6.684;2022-07-23T02:12:57;6.93;;;5.10;;
19339;SDS011;9804;52.350;6.684;2022-07-23T02:15:23;8.15;;;4.70;;
19339;SDS011;9804;52.350;6.684;2022-07-23T02:17:48;7.28;;;4.25;;
19339;SDS011;9804;52.350;6.684;2022-07-23T02:20:14;5.70;;;4.90;;
19339;SDS011;9804;52.350;6.684;2022-07-23T02:22:40;10.38;;;4.97;;
19339;SDS011;9804;52.350;6.684;2022-07-23T02:25:05;7.13;;;4.60;;
19339;SDS011;9804;52.350;6.684;2022-07-23T02:27:32;6.57;;;5.00;;
19339;SDS011;9804;52.350;6.684;2022-07-23T02:29:58;6.30;;;4.70;;
19339;SDS011;9804;52.350;6.684;2022-07-23T02:32:24;7.15;;;5.50;;
19339;SDS011;9804;52.350;6.684;2022-07-23T02:34:49;6.78;;;5.05;;
19339;SDS011;9804;52.350;6.684;2022-07-23T02:37:15;7.38;;;5.18;;
19339;SDS011;9804;52.350;6.684;2022-07-23T02:39:40;6.72;;;5.03;;
19339;SDS011;9804;52.350;6.684;2022-07-23T02:42:06;7.38;;;5.15;;
19339;SDS011;9804;52.350;6.684;2022-07-23T02:44:31;6.07;;;4.60;;
19339;SDS011;9804;52.350;6.684;2022-07-23T02:46:57;7.50;;;5.07;;
19339;SDS011;9804;52.350;6.684;2022-07-23T02:49:22;9.35;;;5.03;;
19339;SDS011;9804;52.350;6.684;2022-07-23T02:51:48;8.95;;;5.45;;
19339;SDS011;9804;52.350;6.684;2022-07-23T02:54:13;5.60;;;4.53;;
19339;SDS011;9804;52.350;6.684;2022-07-23T02:56:38;6.95;;;4.57;;
19339;SDS011;9804;52.350;6.684;2022-07-23T02:59:04;7.75;;;4.50;;
19339;SDS011;9804;52.350;6.684;2022-07-23T03:01:29;9.93;;;5.18;;
19339;SDS011;9804;52.350;6.684;2022-07-23T03:03:54;7.10;;;5.30;;
19339;SDS011;9804;52.350;6.684;2022-07-23T03:06:20;5.97;;;5.18;;
19339;SDS011;9804;52.350;6.684;2022-07-23T03:08:45;7.55;;;5.68;;
19339;SDS011;9804;52.350;6.684;2022-07-23T03:11:11;8.18;;;5.00;;
19339;SDS011;9804;52.350;6.684;2022-07-23T03:13:36;9.52;;;5.70;;
19339;SDS011;9804;52.350;6.684;2022-07-23T03:16:05;6.55;;;4.90;;
19339;SDS011;9804;52.350;6.684;2022-07-23T03:18:31;7.75;;;5.13;;
19339;SDS011;9804;52.350;6.684;2022-07-23T03:20:56;10.85;;;5.40;;
19339;SDS011;9804;52.350;6.684;2022-07-23T03:23:22;7.30;;;5.30;;
19339;SDS011;9804;52.350;6.684;2022-07-23T03:25:47;8.57;;;5.07;;
19339;SDS011;9804;52.350;6.684;2022-07-23T03:28:13;9.05;;;6.32;;
19339;SDS011;9804;52.350;6.684;2022-07-23T03:30:40;9.32;;;5.80;;
19339;SDS011;9804;52.350;6.684;2022-07-23T03:33:06;10.57;;;5.82;;
19339;SDS011;9804;52.350;6.684;2022-07-23T03:35:31;9.18;;;5.57;;
19339;SDS011;9804;52.350;6.684;2022-07-23T03:37:57;13.70;;;6.38;;
19339;SDS011;9804;52.350;6.684;2022-07-23T03:40:22;8.65;;;5.22;;
19339;SDS011;9804;52.350;6.684;2022-07-23T03:42:47;9.35;;;5.60;;
19339;SDS011;9804;52.350;6.684;2022-07-23T03:45:13;9.20;;;5.78;;
19339;SDS011;9804;52.350;6.684;2022-07-23T03:47:38;8.90;;;6.00;;
19339;SDS011;9804;52.350;6.684;2022-07-23T03:50:04;8.10;;;5.80;;
19339;SDS011;9804;52.350;6.684;2022-07-23T03:52:30;8.45;;;5.55;;
19339;SDS011;9804;52.350;6.684;2022-07-23T03:54:55;9.70;;;6.38;;
19339;SDS011;9804;52.350;6.684;2022-07-23T03:57:20;9.13;;;6.47;;
19339;SDS011;9804;52.350;6.684;2022-07-23T03:59:46;11.80;;;5.82;;
19339;SDS011;9804;52.350;6.684;2022-07-23T04:02:11;8.60;;;5.78;;
19339;SDS011;9804;52.350;6.684;2022-07-23T04:04:36;8.52;;;6.00;;
19339;SDS011;9804;52.350;6.684;2022-07-23T04:07:02;9.23;;;5.97;;
19339;SDS011;9804;52.350;6.684;2022-07-23T04:09:27;8.77;;;5.95;;
19339;SDS011;9804;52.350;6.684;2022-07-23T04:11:52;9.10;;;5.75;;
19339;SDS011;9804;52.350;6.684;2022-07-23T04:14:18;9.90;;;5.53;;
19339;SDS011;9804;52.350;6.684;2022-07-23T04:16:43;8.27;;;6.35;;
19339;SDS011;9804;52.350;6.684;2022-07-23T04:19:08;7.90;;;5.70;;
19339;SDS011;9804;52.350;6.684;2022-07-23T04:21:34;9.93;;;5.88;;
19339;SDS011;9804;52.350;6.684;2022-07-23T04:23:59;6.65;;;5.22;;
19339;SDS011;9804;52.350;6.684;2022-07-23T04:26:24;8.65;;;5.97;;
19339;SDS011;9804;52.350;6.684;2022-07-23T04:28:50;7.85;;;5.68;;
19339;SDS011;9804;52.350;6.684;2022-07-23T04:31:15;7.93;;;6.35;;
19339;SDS011;9804;52.350;6.684;2022-07-23T04:33:40;8.95;;;6.10;;
19339;SDS011;9804;52.350;6.684;2022-07-23T04:36:06;8.02;;;6.30;;
19339;SDS011;9804;52.350;6.684;2022-07-23T04:38:31;10.43;;;6.50;;
19339;SDS011;9804;52.350;6.684;2022-07-23T04:40:57;9.27;;;5.95;;
19339;SDS011;9804;52.350;6.684;2022-07-23T04:43:23;7.53;;;5.35;;
19339;SDS011;9804;52.350;6.684;2022-07-23T04:45:48;7.10;;;5.88;;
19339;SDS011;9804;52.350;6.684;2022-07-23T04:48:13;7.65;;;6.28;;
19339;SDS011;9804;52.350;6.684;2022-07-23T04:50:39;8.18;;;6.30;;
19339;SDS011;9804;52.350;6.684;2022-07-23T04:53:04;9.00;;;6.45;;
19339;SDS011;9804;52.350;6.684;2022-07-23T04:55:30;8.38;;;6.00;;
19339;SDS011;9804;52.350;6.684;2022-07-23T04:57:55;9.40;;;5.75;;
19339;SDS011;9804;52.350;6.684;2022-07-23T05:00:20;13.75;;;6.13;;
19339;SDS011;9804;52.350;6.684;2022-07-23T05:02:46;7.22;;;6.03;;
19339;SDS011;9804;52.350;6.684;2022-07-23T05:05:11;7.22;;;6.13;;
19339;SDS011;9804;52.350;6.684;2022-07-23T05:07:37;8.82;;;6.80;;
19339;SDS011;9804;52.350;6.684;2022-07-23T05:10:02;11.73;;;7.45;;
19339;SDS011;9804;52.350;6.684;2022-07-23T05:12:28;9.85;;;6.38;;
19339;SDS011;9804;52.350;6.684;2022-07-23T05:14:53;16.98;;;6.40;;
19339;SDS011;9804;52.350;6.684;2022-07-23T05:17:18;13.00;;;6.68;;
19339;SDS011;9804;52.350;6.684;2022-07-23T05:19:44;12.82;;;6.93;;
19339;SDS011;9804;52.350;6.684;2022-07-23T05:22:09;11.68;;;6.78;;
19339;SDS011;9804;52.350;6.684;2022-07-23T05:24:35;8.52;;;6.38;;
19339;SDS011;9804;52.350;6.684;2022-07-23T05:27:00;10.23;;;6.10;;
19339;SDS011;9804;52.350;6.684;2022-07-23T05:29:25;10.38;;;6.25;;
19339;SDS011;9804;52.350;6.684;2022-07-23T05:31:51;8.30;;;7.05;;
19339;SDS011;9804;52.350;6.684;2022-07-23T05:34:16;8.02;;;6.10;;
19339;SDS011;9804;52.350;6.684;2022-07-23T05:36:41;6.45;;;5.15;;
19339;SDS011;9804;52.350;6.684;2022-07-23T05:39:07;6.10;;;4.97;;
19339;SDS011;9804;52.350;6.684;2022-07-23T05:41:32;10.25;;;4.72;;
19339;SDS011;9804;52.350;6.684;2022-07-23T05:43:57;8.07;;;4.50;;
19339;SDS011;9804;52.350;6.684;2022-07-23T05:46:23;11.75;;;5.05;;
19339;SDS011;9804;52.350;6.684;2022-07-23T05:48:48;6.85;;;4.22;;
19339;SDS011;9804;52.350;6.684;2022-07-23T05:51:21;7.13;;;4.30;;
19339;SDS011;9804;52.350;6.684;2022-07-23T05:53:47;7.63;;;4.53;;
19339;SDS011;9804;52.350;6.684;2022-07-23T05:56:12;8.88;;;4.25;;
19339;SDS011;9804;52.350;6.684;2022-07-23T05:58:38;9.38;;;3.95;;
19339;SDS011;9804;52.350;6.684;2022-07-23T06:01:03;6.25;;;3.85;;
19339;SDS011;9804;52.350;6.684;2022-07-23T06:03:28;5.63;;;3.78;;
19339;SDS011;9804;52.350;6.684;2022-07-23T06:05:54;8.95;;;3.38;;
19339;SDS011;9804;52.350;6.684;2022-07-23T06:08:19;6.57;;;3.00;;
19339;SDS011;9804;52.350;6.684;2022-07-23T06:10:44;6.18;;;2.65;;
19339;SDS011;9804;52.350;6.684;2022-07-23T06:13:10;4.07;;;2.97;;
19339;SDS011;9804;52.350;6.684;2022-07-23T06:15:35;7.05;;;2.95;;
19339;SDS011;9804;52.350;6.684;2022-07-23T06:18:01;5.55;;;3.00;;
19339;SDS011;9804;52.350;6.684;2022-07-23T06:20:26;4.88;;;2.60;;
19339;SDS011;9804;52.350;6.684;2022-07-23T06:22:51;6.40;;;3.47;;
19339;SDS011;9804;52.350;6.684;2022-07-23T06:25:17;5.63;;;3.03;;
19339;SDS011;9804;52.350;6.684;2022-07-23T06:27:42;5.80;;;2.95;;
19339;SDS011;9804;52.350;6.684;2022-07-23T06:30:07;5.70;;;2.65;;
19339;SDS011;9804;52.350;6.684;2022-07-23T06:32:35;7.10;;;2.58;;
19339;SDS011;9804;52.350;6.684;2022-07-23T06:35:00;4.30;;;1.95;;
19339;SDS011;9804;52.350;6.684;2022-07-23T06:37:25;5.03;;;2.60;;
19339;SDS011;9804;52.350;6.684;2022-07-23T06:39:51;3.50;;;2.10;;
19339;SDS011;9804;52.350;6.684;2022-07-23T06:42:16;2.70;;;2.03;;
19339;SDS011;9804;52.350;6.684;2022-07-23T06:44:41;11.80;;;2.40;;
19339;SDS011;9804;52.350;6.684;2022-07-23T06:47:07;4.70;;;2.05;;
19339;SDS011;9804;52.350;6.684;2022-07-23T06:49:33;5.70;;;2.10;;
19339;SDS011;9804;52.350;6.684;2022-07-23T06:51:58;3.58;;;2.00;;
19339;SDS011;9804;52.350;6.684;2022-07-23T06:54:24;5.65;;;1.92;;
19339;SDS011;9804;52.350;6.684;2022-07-23T06:56:49;3.05;;;2.08;;
19339;SDS011;9804;52.350;6.684;2022-07-23T06:59:15;2.92;;;1.65;;
19339;SDS011;9804;52.350;6.684;2022-07-23T07:01:40;6.72;;;2.20;;
19339;SDS011;9804;52.350;6.684;2022-07-23T07:04:05;7.22;;;1.92;;
19339;SDS011;9804;52.350;6.684;2022-07-23T07:06:31;5.65;;;2.13;;
19339;SDS011;9804;52.350;6.684;2022-07-23T07:08:56;5.50;;;1.85;;
19339;SDS011;9804;52.350;6.684;2022-07-23T07:11:22;3.50;;;2.30;;
19339;SDS011;9804;52.350;6.684;2022-07-23T07:13:48;6.82;;;1.92;;
19339;SDS011;9804;52.350;6.684;2022-07-23T07:16:14;3.22;;;1.60;;
19339;SDS011;9804;52.350;6.684;2022-07-23T07:18:39;3.92;;;1.50;;
19339;SDS011;9804;52.350;6.684;2022-07-23T07:21:05;2.13;;;1.58;;
19339;SDS011;9804;52.350;6.684;2022-07-23T07:23:30;4.50;;;1.70;;
19339;SDS011;9804;52.350;6.684;2022-07-23T07:25:55;4.65;;;1.70;;
19339;SDS011;9804;52.350;6.684;2022-07-23T07:28:21;3.63;;;1.65;;
19339;SDS011;9804;52.350;6.684;2022-07-23T07:30:46;3.92;;;1.90;;
19339;SDS011;9804;52.350;6.684;2022-07-23T07:33:11;4.45;;;1.45;;
19339;SDS011;9804;52.350;6.684;2022-07-23T07:35:37;2.92;;;1.75;;
19339;SDS011;9804;52.350;6.684;2022-07-23T07:38:02;4.90;;;1.40;;
19339;SDS011;9804;52.350;6.684;2022-07-23T07:40:27;4.35;;;1.73;;
19339;SDS011;9804;52.350;6.684;2022-07-23T07:42:53;3.85;;;2.13;;
19339;SDS011;9804;52.350;6.684;2022-07-23T07:45:20;3.70;;;1.85;;
19339;SDS011;9804;52.350;6.684;2022-07-23T07:47:46;6.40;;;2.10;;
19339;SDS011;9804;52.350;6.684;2022-07-23T07:50:12;2.92;;;1.70;;
19339;SDS011;9804;52.350;6.684;2022-07-23T07:52:37;2.00;;;1.60;;
19339;SDS011;9804;52.350;6.684;2022-07-23T07:55:03;6.45;;;1.98;;
19339;SDS011;9804;52.350;6.684;2022-07-23T07:57:30;5.30;;;1.50;;
19339;SDS011;9804;52.350;6.684;2022-07-23T07:59:55;5.72;;;1.50;;
19339;SDS011;9804;52.350;6.684;2022-07-23T08:02:20;4.43;;;1.75;;
19339;SDS011;9804;52.350;6.684;2022-07-23T08:04:46;4.60;;;1.65;;
19339;SDS011;9804;52.350;6.684;2022-07-23T08:07:11;1.58;;;1.40;;
19339;SDS011;9804;52.350;6.684;2022-07-23T08:09:36;3.03;;;1.45;;
19339;SDS011;9804;52.350;6.684;2022-07-23T08:12:02;2.65;;;1.30;;
19339;SDS011;9804;52.350;6.684;2022-07-23T08:14:27;2.85;;;1.65;;
19339;SDS011;9804;52.350;6.684;2022-07-23T08:16:53;2.35;;;1.30;;
19339;SDS011;9804;52.350;6.684;2022-07-23T08:19:18;3.22;;;1.35;;
19339;SDS011;9804;52.350;6.684;2022-07-23T08:21:43;3.58;;;1.27;;
19339;SDS011;9804;52.350;6.684;2022-07-23T08:24:08;1.67;;;1.08;;
19339;SDS011;9804;52.350;6.684;2022-07-23T08:26:34;1.45;;;1.00;;
19339;SDS011;9804;52.350;6.684;2022-07-23T08:28:59;1.98;;;0.75;;
19339;SDS011;9804;52.350;6.684;2022-07-23T08:31:25;2.17;;;0.82;;
19339;SDS011;9804;52.350;6.684;2022-07-23T08:33:50;1.77;;;0.70;;
19339;SDS011;9804;52.350;6.684;2022-07-23T08:36:17;3.35;;;1.05;;
19339;SDS011;9804;52.350;6.684;2022-07-23T08:38:42;2.15;;;0.90;;
19339;SDS011;9804;52.350;6.684;2022-07-23T08:41:08;3.05;;;0.88;;
19339;SDS011;9804;52.350;6.684;2022-07-23T08:43:34;3.10;;;1.23;;
19339;SDS011;9804;52.350;6.684;2022-07-23T08:46:00;1.23;;;1.00;;
19339;SDS011;9804;52.350;6.684;2022-07-23T08:48:28;1.65;;;1.02;;
19339;SDS011;9804;52.350;6.684;2022-07-23T08:50:56;2.92;;;1.00;;
19339;SDS011;9804;52.350;6.684;2022-07-23T08:53:23;3.28;;;1.30;;
19339;SDS011;9804;52.350;6.684;2022-07-23T08:55:51;2.38;;;1.00;;
19339;SDS011;9804;52.350;6.684;2022-07-23T08:58:17;1.42;;;0.93;;
19339;SDS011;9804;52.350;6.684;2022-07-23T09:00:44;1.08;;;1.02;;
19339;SDS011;9804;52.350;6.684;2022-07-23T09:03:23;2.50;;;1.20;;
19339;SDS011;9804;52.350;6.684;2022-07-23T09:05:53;2.65;;;0.90;;
19339;SDS011;9804;52.350;6.684;2022-07-23T09:08:21;4.15;;;0.93;;
19339;SDS011;9804;52.350;6.684;2022-07-23T09:18:46;3.22;;;1.08;;
19339;SDS011;9804;52.350;6.684;2022-07-23T09:24:04;1.60;;;1.10;;
19339;SDS011;9804;52.350;6.684;2022-07-23T09:26:44;3.53;;;1.48;;
19339;SDS011;9804;52.350;6.684;2022-07-23T09:31:56;7.65;;;1.60;;
19339;SDS011;9804;52.350;6.684;2022-07-23T09:36:58;4.18;;;1.52;;
19339;SDS011;9804;52.350;6.684;2022-07-23T09:39:34;2.78;;;1.42;;
19339;SDS011;9804;52.350;6.684;2022-07-23T09:42:12;4.82;;;1.10;;
19339;SDS011;9804;52.350;6.684;2022-07-23T09:44:56;2.40;;;1.42;;
19339;SDS011;9804;52.350;6.684;2022-07-23T09:47:23;2.42;;;1.20;;
19339;SDS011;9804;52.350;6.684;2022-07-23T09:50:04;1.63;;;1.17;;
19339;SDS011;9804;52.350;6.684;2022-07-23T09:52:34;4.28;;;1.10;;
19339;SDS011;9804;52.350;6.684;2022-07-23T09:55:04;2.58;;;1.13;;
19339;SDS011;9804;52.350;6.684;2022-07-23T09:57:31;3.75;;;1.25;;
19339;SDS011;9804;52.350;6.684;2022-07-23T09:59:58;3.33;;;1.50;;
19339;SDS011;9804;52.350;6.684;2022-07-23T10:02:27;5.10;;;1.48;;
19339;SDS011;9804;52.350;6.684;2022-07-23T10:04:53;3.13;;;1.20;;
19339;SDS011;9804;52.350;6.684;2022-07-23T10:07:21;2.08;;;1.00;;
19339;SDS011;9804;52.350;6.684;2022-07-23T10:09:48;3.08;;;1.13;;
19339;SDS011;9804;52.350;6.684;2022-07-23T10:12:17;1.30;;;1.10;;
19339;SDS011;9804;52.350;6.684;2022-07-23T10:15:03;2.97;;;1.20;;
19339;SDS011;9804;52.350;6.684;2022-07-23T10:17:30;1.17;;;1.00;;
19339;SDS011;9804;52.350;6.684;2022-07-23T10:19:56;1.08;;;0.90;;
19339;SDS011;9804;52.350;6.684;2022-07-23T10:22:25;2.65;;;1.40;;
19339;SDS011;9804;52.350;6.684;2022-07-23T10:36:16;3.00;;;1.48;;
19339;SDS011;9804;52.350;6.684;2022-07-23T10:38:49;1.65;;;1.30;;
19339;SDS011;9804;52.350;6.684;2022-07-23T10:41:33;2.55;;;1.30;;
19339;SDS011;9804;52.350;6.684;2022-07-23T10:44:07;1.95;;;1.20;;
19339;SDS011;9804;52.350;6.684;2022-07-23T10:46:34;1.60;;;1.13;;
19339;SDS011;9804;52.350;6.684;2022-07-23T10:49:29;3.45;;;2.08;;
19339;SDS011;9804;52.350;6.684;2022-07-23T10:54:42;2.45;;;1.52;;
19339;SDS011;9804;52.350;6.684;2022-07-23T10:57:11;4.32;;;1.50;;
19339;SDS011;9804;52.350;6.684;2022-07-23T11:02:34;3.30;;;1.67;;
19339;SDS011;9804;52.350;6.684;2022-07-23T11:05:03;2.30;;;1.50;;
19339;SDS011;9804;52.350;6.684;2022-07-23T11:07:29;2.42;;;1.83;;
19339;SDS011;9804;52.350;6.684;2022-07-23T11:09:54;5.55;;;1.40;;
19339;SDS011;9804;52.350;6.684;2022-07-23T11:14:58;2.67;;;1.60;;
19339;SDS011;9804;52.350;6.684;2022-07-23T11:17:24;1.73;;;1.38;;
19339;SDS011;9804;52.350;6.684;2022-07-23T11:22:37;3.85;;;1.67;;
19339;SDS011;9804;52.350;6.684;2022-07-23T11:25:03;1.98;;;1.50;;
19339;SDS011;9804;52.350;6.684;2022-07-23T11:30:04;3.13;;;2.03;;
19339;SDS011;9804;52.350;6.684;2022-07-23T11:32:32;5.10;;;2.10;;
19339;SDS011;9804;52.350;6.684;2022-07-23T11:37:50;3.05;;;1.73;;
19339;SDS011;9804;52.350;6.684;2022-07-23T11:40:23;4.35;;;1.40;;
19339;SDS011;9804;52.350;6.684;2022-07-23T11:42:56;4.50;;;1.98;;
19339;SDS011;9804;52.350;6.684;2022-07-23T11:45:49;1.88;;;1.50;;
19339;SDS011;9804;52.350;6.684;2022-07-23T11:50:46;3.25;;;1.60;;
19339;SDS011;9804;52.350;6.684;2022-07-23T11:53:12;3.85;;;2.13;;
19339;SDS011;9804;52.350;6.684;2022-07-23T11:55:38;4.05;;;1.90;;
19339;SDS011;9804;52.350;6.684;2022-07-23T11:58:03;5.32;;;2.00;;
19339;SDS011;9804;52.350;6.684;2022-07-23T12:00:29;4.30;;;2.10;;
19339;SDS011;9804;52.350;6.684;2022-07-23T12:02:57;2.95;;;1.90;;
19339;SDS011;9804;52.350;6.684;2022-07-23T12:05:26;1.98;;;1.65;;
19339;SDS011;9804;52.350;6.684;2022-07-23T12:07:54;4.40;;;2.15;;
19339;SDS011;9804;52.350;6.684;2022-07-23T12:10:21;3.80;;;2.17;;
19339;SDS011;9804;52.350;6.684;2022-07-23T12:12:52;4.70;;;2.15;;
19339;SDS011;9804;52.350;6.684;2022-07-23T12:15:19;2.92;;;2.10;;
19339;SDS011;9804;52.350;6.684;2022-07-23T12:17:51;3.50;;;1.95;;
19339;SDS011;9804;52.350;6.684;2022-07-23T12:20:21;4.70;;;2.08;;
19339;SDS011;9804;52.350;6.684;2022-07-23T12:22:49;4.93;;;2.35;;
19339;SDS011;9804;52.350;6.684;2022-07-23T12:25:17;4.63;;;2.10;;
19339;SDS011;9804;52.350;6.684;2022-07-23T12:27:44;3.28;;;2.00;;
19339;SDS011;9804;52.350;6.684;2022-07-23T12:30:24;2.45;;;1.60;;
19339;SDS011;9804;52.350;6.684;2022-07-23T12:32:52;2.65;;;1.70;;
19339;SDS011;9804;52.350;6.684;2022-07-23T12:35:19;3.17;;;1.75;;
19339;SDS011;9804;52.350;6.684;2022-07-23T12:37:46;2.35;;;2.15;;
19339;SDS011;9804;52.350;6.684;2022-07-23T12:40:21;3.28;;;1.65;;
19339;SDS011;9804;52.350;6.684;2022-07-23T12:42:56;2.17;;;1.80;;
19339;SDS011;9804;52.350;6.684;2022-07-23T12:45:26;3.58;;;1.80;;
19339;SDS011;9804;52.350;6.684;2022-07-23T12:47:54;5.10;;;2.05;;
19339;SDS011;9804;52.350;6.684;2022-07-23T12:50:39;3.53;;;2.05;;
19339;SDS011;9804;52.350;6.684;2022-07-23T12:53:08;4.68;;;2.50;;
19339;SDS011;9804;52.350;6.684;2022-07-23T12:55:35;4.28;;;1.90;;
19339;SDS011;9804;52.350;6.684;2022-07-23T12:58:05;2.55;;;2.05;;
19339;SDS011;9804;52.350;6.684;2022-07-23T13:00:55;2.47;;;1.73;;
19339;SDS011;9804;52.350;6.684;2022-07-23T13:03:25;3.58;;;1.92;;
19339;SDS011;9804;52.350;6.684;2022-07-23T13:06:00;4.75;;;1.80;;
19339;SDS011;9804;52.350;6.684;2022-07-23T13:08:27;3.85;;;2.08;;
19339;SDS011;9804;52.350;6.684;2022-07-23T13:10:55;5.18;;;2.13;;
19339;SDS011;9804;52.350;6.684;2022-07-23T13:13:21;4.47;;;2.15;;
19339;SDS011;9804;52.350;6.684;2022-07-23T13:15:48;2.17;;;1.88;;
19339;SDS011;9804;52.350;6.684;2022-07-23T13:18:14;3.50;;;1.80;;
19339;SDS011;9804;52.350;6.684;2022-07-23T13:20:41;3.92;;;1.98;;
19339;SDS011;9804;52.350;6.684;2022-07-23T13:23:07;2.40;;;1.92;;
19339;SDS011;9804;52.350;6.684;2022-07-23T13:25:32;2.55;;;1.95;;
19339;SDS011;9804;52.350;6.684;2022-07-23T13:27:59;2.53;;;1.92;;
19339;SDS011;9804;52.350;6.684;2022-07-23T13:30:24;3.65;;;1.83;;
19339;SDS011;9804;52.350;6.684;2022-07-23T13:32:49;2.25;;;2.05;;
19339;SDS011;9804;52.350;6.684;2022-07-23T13:35:15;1.73;;;1.63;;
19339;SDS011;9804;52.350;6.684;2022-07-23T13:37:40;3.75;;;2.05;;
19339;SDS011;9804;52.350;6.684;2022-07-23T13:40:06;2.90;;;1.70;;
19339;SDS011;9804;52.350;6.684;2022-07-23T13:42:32;5.22;;;1.98;;
19339;SDS011;9804;52.350;6.684;2022-07-23T13:44:57;7.68;;;2.00;;
19339;SDS011;9804;52.350;6.684;2022-07-23T13:47:23;2.20;;;1.70;;
19339;SDS011;9804;52.350;6.684;2022-07-23T13:49:48;4.40;;;1.90;;
19339;SDS011;9804;52.350;6.684;2022-07-23T13:52:13;8.23;;;2.10;;
19339;SDS011;9804;52.350;6.684;2022-07-23T13:54:39;2.85;;;1.90;;
19339;SDS011;9804;52.350;6.684;2022-07-23T13:57:04;2.00;;;1.65;;
19339;SDS011;9804;52.350;6.684;2022-07-23T13:59:29;2.35;;;1.80;;
19339;SDS011;9804;52.350;6.684;2022-07-23T14:01:55;2.63;;;1.80;;
19339;SDS011;9804;52.350;6.684;2022-07-23T14:04:21;2.17;;;1.98;;
19339;SDS011;9804;52.350;6.684;2022-07-23T14:06:46;3.60;;;2.05;;
19339;SDS011;9804;52.350;6.684;2022-07-23T14:09:12;2.45;;;2.00;;
19339;SDS011;9804;52.350;6.684;2022-07-23T14:11:37;4.00;;;1.75;;
19339;SDS011;9804;52.350;6.684;2022-07-23T14:14:03;4.30;;;1.83;;
19339;SDS011;9804;52.350;6.684;2022-07-23T14:16:29;2.55;;;1.90;;
19339;SDS011;9804;52.350;6.684;2022-07-23T14:18:54;3.97;;;2.00;;
19339;SDS011;9804;52.350;6.684;2022-07-23T14:21:20;2.63;;;2.10;;
19339;SDS011;9804;52.350;6.684;2022-07-23T14:23:45;3.25;;;1.80;;
19339;SDS011;9804;52.350;6.684;2022-07-23T14:26:11;4.32;;;2.15;;
19339;SDS011;9804;52.350;6.684;2022-07-23T14:28:36;3.08;;;1.98;;
19339;SDS011;9804;52.350;6.684;2022-07-23T14:31:01;2.63;;;1.88;;
19339;SDS011;9804;52.350;6.684;2022-07-23T14:33:27;3.08;;;1.75;;
19339;SDS011;9804;52.350;6.684;2022-07-23T14:35:52;3.00;;;1.75;;
19339;SDS011;9804;52.350;6.684;2022-07-23T14:38:18;2.58;;;1.67;;
19339;SDS011;9804;52.350;6.684;2022-07-23T14:40:43;3.08;;;1.88;;
19339;SDS011;9804;52.350;6.684;2022-07-23T14:43:08;2.85;;;1.90;;
19339;SDS011;9804;52.350;6.684;2022-07-23T14:45:34;4.25;;;2.17;;
19339;SDS011;9804;52.350;6.684;2022-07-23T14:48:00;3.58;;;1.80;;
19339;SDS011;9804;52.350;6.684;2022-07-23T14:50:27;2.72;;;1.67;;
19339;SDS011;9804;52.350;6.684;2022-07-23T14:52:52;3.45;;;2.10;;
19339;SDS011;9804;52.350;6.684;2022-07-23T14:55:18;4.82;;;2.40;;
19339;SDS011;9804;52.350;6.684;2022-07-23T14:57:43;3.38;;;1.77;;
19339;SDS011;9804;52.350;6.684;2022-07-23T15:00:09;3.22;;;1.70;;
19339;SDS011;9804;52.350;6.684;2022-07-23T15:02:35;2.88;;;1.63;;
19339;SDS011;9804;52.350;6.684;2022-07-23T15:05:00;3.95;;;1.95;;
19339;SDS011;9804;52.350;6.684;2022-07-23T15:07:26;4.70;;;2.10;;
19339;SDS011;9804;52.350;6.684;2022-07-23T15:09:52;1.67;;;1.50;;
19339;SDS011;9804;52.350;6.684;2022-07-23T15:12:18;3.40;;;1.90;;
19339;SDS011;9804;52.350;6.684;2022-07-23T15:14:43;3.13;;;2.10;;
19339;SDS011;9804;52.350;6.684;2022-07-23T15:17:09;2.60;;;1.88;;
19339;SDS011;9804;52.350;6.684;2022-07-23T15:19:34;2.65;;;2.00;;
19339;SDS011;9804;52.350;6.684;2022-07-23T15:22:00;3.53;;;2.08;;
19339;SDS011;9804;52.350;6.684;2022-07-23T15:24:25;3.50;;;1.90;;
19339;SDS011;9804;52.350;6.684;2022-07-23T15:26:50;4.57;;;1.77;;
19339;SDS011;9804;52.350;6.684;2022-07-23T15:29:16;6.75;;;2.22;;
19339;SDS011;9804;52.350;6.684;2022-07-23T15:31:41;2.75;;;1.80;;
19339;SDS011;9804;52.350;6.684;2022-07-23T15:34:07;5.22;;;1.92;;
19339;SDS011;9804;52.350;6.684;2022-07-23T15:36:32;2.00;;;1.67;;
19339;SDS011;9804;52.350;6.684;2022-07-23T15:38:58;2.35;;;2.05;;
19339;SDS011;9804;52.350;6.684;2022-07-23T15:41:23;4.35;;;2.28;;
19339;SDS011;9804;52.350;6.684;2022-07-23T15:43:49;2.88;;;2.20;;